Trident Challenger — V7TY7 — position and weather

sailwx.info

Track history (hours):
 
Tides and Currents Weather Stations Pressure Air Temp Water Temp Dewpoint Dewpoint Depression Visibility Wind Speed Wind Dir Waves Ship Positions

Trident Challenger

Last reported at 2015-Aug-02 17:29 UTC. Time now 2015-Aug-28 09:36 UTC.
Position N 27°32' W 015°15'.
Warning: this ship's position is 25 days out of date.

Length 189 m; draft 11.2 m.

Type: Cargo ship. MMSI: 538003908.

Date/timePositionNaut miles runAvg speedWind from/ knotsBaromVisibWave heightAir tempDewpointWater temp
2015-Aug-02 17:29N 27°32' W 015°15'1111.7
2015-Aug-02 16:33N 27°42' W 015°11'1212.5
2015-Aug-02 15:33N 27°54' W 015°06'1212.1
2015-Aug-02 14:33N 28°05' W 015°01'1212.1
2015-Aug-02 13:33N 28°17' W 014°56'1212.1
2015-Aug-02 12:33N 28°29' W 014°53'1212.2
2015-Aug-02 11:33N 28°40' W 014°49'1212.1
2015-Aug-02 10:33N 28°52' W 014°46'  
2015-Jul-27 23:16N 50°31' E 000°07'710.2
2015-Jul-27 22:33N 50°33' E 000°18'10 9.6
2015-Jul-27 21:33N 50°36' E 000°33'9 8.7
2015-Jul-27 20:33N 50°39' E 000°46'9 8.6
2015-Jul-27 19:32N 50°45' E 000°56'10 8.6
2015-Jul-27 18:25N 50°51' E 001°08'8 8.9
2015-Jul-27 17:33N 50°55' E 001°18'10 9.7
2015-Jul-27 16:33N 51°02' E 001°29'1110.7
2015-Jul-27 15:33N 51°10' E 001°40'1110.8
2015-Jul-27 14:33N 51°19' E 001°50'1010.4
2015-Jul-27 13:33N 51°28' E 001°59'1010.4
2015-Jul-27 12:33N 51°36' E 002°10'38510.6
2015-Jul-26 00:22N 57°04' E 007°56'1012.5
2015-Jul-25 23:33N 57°12' E 008°06'1312.8
2015-Jul-25 22:33N 57°23' E 008°19'7012.8
2015-Jul-25 17:07N 57°48' E 010°20'712.5
2015-Jul-25 16:33N 57°48' E 010°34'7 7.4
2015-Jul-25 15:33N 57°43' E 010°44'9 8.9
2015-Jul-25 14:33N 57°36' E 010°54'1211.9
2015-Jul-25 13:33N 57°32' E 011°15'1010.4
2015-Jul-25 12:33N 57°24' E 011°28'1211.8
2015-Jul-25 11:33N 57°13' E 011°36'1211.9
2015-Jul-25 10:33N 57°02' E 011°43'1211.7
2015-Jul-25 09:33N 56°51' E 011°50'10 9.6
2015-Jul-25 08:33N 56°42' E 011°47'4510.1
2015-Jul-25 04:08N 56°03' E 011°06'1010.5
2015-Jul-25 03:13N 55°55' E 010°57'1210.7
2015-Jul-25 02:06N 55°44' E 010°48'1011.4
2015-Jul-25 01:14N 55°34' E 010°50'811.8
2015-Jul-25 00:31N 55°26' E 010°57'1111.5
2015-Jul-24 23:33N 55°16' E 011°05'10 9.6
2015-Jul-24 22:33N 55°07' E 010°59'1010.3
2015-Jul-24 21:33N 54°57' E 010°55'1010.4
2015-Jul-24 20:33N 54°47' E 010°49'8 8.2
2015-Jul-24 19:33N 54°39' E 010°52'1111.3
2015-Jul-24 18:33N 54°35' E 011°11'1212.0
2015-Jul-24 17:33N 54°30' E 011°30'1211.6
2015-Jul-24 16:33N 54°25' E 011°48'1211.6
2015-Jul-24 15:33N 54°17' E 012°02'8 7.8
2015-Jul-24 14:33N 54°10' E 012°06'1 0.7
2015-Jul-24 13:25N 54°09' E 012°07'0 0.0
2015-Jul-24 12:31N 54°09' E 012°07'0 0.0
2015-Jul-24 11:31N 54°09' E 012°07'0 0.0
2015-Jul-24 10:31N 54°09' E 012°07'0 0.0
2015-Jul-24 09:31N 54°09' E 012°07'0 0.0
2015-Jul-24 08:28N 54°09' E 012°07'0 0.0
2015-Jul-24 07:31N 54°09' E 012°07'0 0.0
2015-Jul-24 06:31N 54°09' E 012°07'0 0.0
2015-Jul-24 05:19N 54°09' E 012°07'0 0.0
2015-Jul-24 04:31N 54°09' E 012°07'0 0.0
2015-Jul-24 03:31N 54°09' E 012°07'0 0.0
2015-Jul-24 01:31N 54°09' E 012°07'0 0.0
2015-Jul-24 00:31N 54°09' E 012°07'0 0.0
2015-Jul-23 23:25N 54°09' E 012°07'0 0.0
2015-Jul-23 21:28N 54°09' E 012°07'0 0.0
2015-Jul-23 20:22N 54°09' E 012°07'0 0.0
2015-Jul-23 17:31N 54°09' E 012°07'  
Track history (hours):
 
Tides and Currents Weather Stations Pressure Air Temp Water Temp Dewpoint Dewpoint Depression Visibility Wind Speed Wind Dir Waves Ship Positions

Trident Challenger

Last reported at 2015-Aug-02 17:29 UTC. Time now 2015-Aug-28 09:36 UTC.
Position N 27°32' W 015°15'.
Warning: this ship's position is 25 days out of date.

Length 189 m; draft 11.2 m.

Type: Cargo ship. MMSI: 538003908.

Date/timePositionNaut miles runAvg speedWind from/ knotsBaromVisibWave heightAir tempDewpointWater temp
2015-Aug-02 17:29N 27°32' W 015°15'1111.7
2015-Aug-02 16:33N 27°42' W 015°11'1212.5
2015-Aug-02 15:33N 27°54' W 015°06'1212.1
2015-Aug-02 14:33N 28°05' W 015°01'1212.1
2015-Aug-02 13:33N 28°17' W 014°56'1212.1
2015-Aug-02 12:33N 28°29' W 014°53'1212.2
2015-Aug-02 11:33N 28°40' W 014°49'1212.1
2015-Aug-02 10:33N 28°52' W 014°46'  
2015-Jul-27 23:16N 50°31' E 000°07'710.2
2015-Jul-27 22:33N 50°33' E 000°18'10 9.6
2015-Jul-27 21:33N 50°36' E 000°33'9 8.7
2015-Jul-27 20:33N 50°39' E 000°46'9 8.6
2015-Jul-27 19:32N 50°45' E 000°56'10 8.6
2015-Jul-27 18:25N 50°51' E 001°08'8 8.9
2015-Jul-27 17:33N 50°55' E 001°18'10 9.7
2015-Jul-27 16:33N 51°02' E 001°29'1110.7
2015-Jul-27 15:33N 51°10' E 001°40'1110.8
2015-Jul-27 14:33N 51°19' E 001°50'1010.4
2015-Jul-27 13:33N 51°28' E 001°59'1010.4
2015-Jul-27 12:33N 51°36' E 002°10'38510.6
2015-Jul-26 00:22N 57°04' E 007°56'1012.5
2015-Jul-25 23:33N 57°12' E 008°06'1312.8
2015-Jul-25 22:33N 57°23' E 008°19'7012.8
2015-Jul-25 17:07N 57°48' E 010°20'712.5
2015-Jul-25 16:33N 57°48' E 010°34'7 7.4
2015-Jul-25 15:33N 57°43' E 010°44'9 8.9
2015-Jul-25 14:33N 57°36' E 010°54'1211.9
2015-Jul-25 13:33N 57°32' E 011°15'1010.4
2015-Jul-25 12:33N 57°24' E 011°28'1211.8
2015-Jul-25 11:33N 57°13' E 011°36'1211.9
2015-Jul-25 10:33N 57°02' E 011°43'1211.7
2015-Jul-25 09:33N 56°51' E 011°50'10 9.6
2015-Jul-25 08:33N 56°42' E 011°47'4510.1
2015-Jul-25 04:08N 56°03' E 011°06'1010.5
2015-Jul-25 03:13N 55°55' E 010°57'1210.7
2015-Jul-25 02:06N 55°44' E 010°48'1011.4
2015-Jul-25 01:14N 55°34' E 010°50'811.8
2015-Jul-25 00:31N 55°26' E 010°57'1111.5
2015-Jul-24 23:33N 55°16' E 011°05'10 9.6
2015-Jul-24 22:33N 55°07' E 010°59'1010.3
2015-Jul-24 21:33N 54°57' E 010°55'1010.4
2015-Jul-24 20:33N 54°47' E 010°49'8 8.2
2015-Jul-24 19:33N 54°39' E 010°52'1111.3
2015-Jul-24 18:33N 54°35' E 011°11'1212.0
2015-Jul-24 17:33N 54°30' E 011°30'1211.6
2015-Jul-24 16:33N 54°25' E 011°48'1211.6
2015-Jul-24 15:33N 54°17' E 012°02'8 7.8
2015-Jul-24 14:33N 54°10' E 012°06'1 0.7
2015-Jul-24 13:25N 54°09' E 012°07'0 0.0
2015-Jul-24 12:31N 54°09' E 012°07'0 0.0
2015-Jul-24 11:31N 54°09' E 012°07'0 0.0
2015-Jul-24 10:31N 54°09' E 012°07'0 0.0
2015-Jul-24 09:31N 54°09' E 012°07'0 0.0
2015-Jul-24 08:28N 54°09' E 012°07'0 0.0
2015-Jul-24 07:31N 54°09' E 012°07'0 0.0
2015-Jul-24 06:31N 54°09' E 012°07'0 0.0
2015-Jul-24 05:19N 54°09' E 012°07'0 0.0
2015-Jul-24 04:31N 54°09' E 012°07'0 0.0
2015-Jul-24 03:31N 54°09' E 012°07'0 0.0
2015-Jul-24 01:31N 54°09' E 012°07'0 0.0
2015-Jul-24 00:31N 54°09' E 012°07'0 0.0
2015-Jul-23 23:25N 54°09' E 012°07'0 0.0
2015-Jul-23 21:28N 54°09' E 012°07'0 0.0
2015-Jul-23 20:22N 54°09' E 012°07'0 0.0
2015-Jul-23 17:31N 54°09' E 012°07'  

Dump ship's entire track history